createdAt,value
2022-11-21T00:02:05.027Z,94418.84
2022-11-21T00:04:34.225Z,94415.69
2022-11-21T00:07:02.047Z,94417.50
2022-11-21T00:09:29.833Z,94431.16
2022-11-21T00:11:57.607Z,94417.69
2022-11-21T00:14:25.994Z,94428.09
2022-11-21T00:16:57.347Z,94440.94
2022-11-21T00:19:25.460Z,94432.84
2022-11-21T00:21:54.651Z,94449.97
2022-11-21T00:24:22.431Z,94442.97
2022-11-21T00:26:50.215Z,94430.47
2022-11-21T00:29:18.028Z,94429.25
2022-11-21T00:31:45.781Z,94418.13
2022-11-21T00:34:13.571Z,94429.91
2022-11-21T00:36:41.326Z,94428.38
2022-11-21T00:39:10.544Z,94427.78
2022-11-21T00:41:38.403Z,94421.75
2022-11-21T00:44:06.341Z,94420.28
2022-11-21T00:46:34.105Z,94419.50
2022-11-21T00:49:02.123Z,94411.63
2022-11-21T00:51:29.978Z,94412.78
2022-11-21T00:53:57.810Z,94414.84
2022-11-21T00:56:26.949Z,94398.25
2022-11-21T00:58:54.728Z,94398.25
2022-11-21T01:01:22.657Z,94400.69
2022-11-21T01:03:50.536Z,94409.81
2022-11-21T01:06:18.334Z,94405.06
2022-11-21T01:08:46.689Z,94411.44
2022-11-21T01:11:17.031Z,94403.75
2022-11-21T01:13:47.599Z,94401.13
2022-11-21T01:16:18.082Z,94409.13
2022-11-21T01:18:46.489Z,94419.00
2022-11-21T01:21:16.583Z,94417.94
2022-11-21T01:23:44.962Z,94418.88
2022-11-21T01:26:15.160Z,94412.50
2022-11-21T01:28:42.959Z,94411.88
2022-11-21T01:31:17.287Z,94407.53
2022-11-21T01:33:45.562Z,94408.59
2022-11-21T01:36:15.427Z,94413.50
2022-11-21T01:38:44.927Z,94413.13
2022-11-21T01:41:13.896Z,94420.41
2022-11-21T01:43:41.938Z,94414.34
2022-11-21T01:46:16.281Z,94428.47
2022-11-21T01:48:50.229Z,94412.88
2022-11-21T01:51:22.437Z,94415.41
2022-11-21T01:53:54.853Z,94397.13
2022-11-21T01:56:23.610Z,94385.41
2022-11-21T01:58:54.424Z,94398.34
2022-11-21T02:01:24.175Z,94389.25
2022-11-21T02:03:53.909Z,94386.72
2022-11-21T02:06:22.004Z,94368.16
2022-11-21T02:08:50.075Z,94370.44
2022-11-21T02:11:25.532Z,94363.00
2022-11-21T02:13:53.935Z,94366.16
2022-11-21T02:16:23.755Z,94364.41
2022-11-21T02:18:51.585Z,94360.91
2022-11-21T02:21:27.601Z,94363.63
2022-11-21T02:24:01.774Z,94362.63
2022-11-21T02:26:31.442Z,94356.63
2022-11-21T02:28:59.661Z,94347.16
2022-11-21T02:31:27.488Z,94347.78
2022-11-21T02:33:55.215Z,94338.66
2022-11-21T02:36:36.693Z,94335.88
2022-11-21T02:39:06.344Z,94346.63
2022-11-21T02:41:38.770Z,94342.44
2022-11-21T02:44:15.134Z,94343.22
2022-11-21T02:46:50.132Z,94335.44
2022-11-21T02:49:25.479Z,94319.31
2022-11-21T02:51:53.231Z,94333.03
2022-11-21T02:54:21.330Z,94326.56
2022-11-21T02:56:50.454Z,94324.91
2022-11-21T02:59:18.223Z,94338.72
2022-11-21T03:01:45.952Z,94334.00
2022-11-21T03:04:13.787Z,94328.91
2022-11-21T03:06:41.540Z,94339.91
2022-11-21T03:09:09.320Z,94331.16
2022-11-21T03:11:37.066Z,94336.19
2022-11-21T03:14:06.183Z,94319.75
2022-11-21T03:16:33.944Z,94321.41
2022-11-21T03:19:01.835Z,94320.09
2022-11-21T03:21:29.599Z,94318.91
2022-11-21T03:23:57.408Z,94306.66
2022-11-21T03:26:25.211Z,94298.41
2022-11-21T03:28:52.955Z,94303.56
2022-11-21T03:31:22.104Z,94301.81
2022-11-21T03:33:49.960Z,94303.31
2022-11-21T03:36:17.702Z,94298.16
2022-11-21T03:38:45.447Z,94293.34
2022-11-21T03:41:27.090Z,94298.16
2022-11-21T03:43:54.830Z,94292.50
2022-11-21T03:46:24.392Z,94287.78
2022-11-21T03:48:52.312Z,94286.81
2022-11-21T03:51:20.189Z,94286.25
2022-11-21T03:53:48.152Z,94288.97
2022-11-21T03:56:15.996Z,94288.53
2022-11-21T03:58:43.816Z,94293.91
2022-11-21T04:01:13.116Z,94277.81
2022-11-21T04:03:42.888Z,94283.03
2022-11-21T04:06:11.877Z,94289.72
2022-11-21T04:08:39.898Z,94297.41
2022-11-21T04:11:08.363Z,94303.28
2022-11-21T04:13:36.336Z,94290.94
2022-11-21T04:16:04.157Z,94289.25
2022-11-21T04:18:31.940Z,94279.34
2022-11-21T04:21:02.433Z,94285.50
2022-11-21T04:23:31.483Z,94289.13
2022-11-21T04:25:59.538Z,94286.53
2022-11-21T04:28:27.536Z,94281.56
2022-11-21T04:30:59.352Z,94301.59
2022-11-21T04:33:29.510Z,94288.72
2022-11-21T04:35:57.402Z,94286.72
2022-11-21T04:38:26.582Z,94268.69
2022-11-21T04:40:54.339Z,94263.19
2022-11-21T04:43:22.127Z,94271.84
2022-11-21T04:45:49.881Z,94255.28
2022-11-21T04:48:17.630Z,94243.81
2022-11-21T04:50:46.995Z,94254.78
2022-11-21T04:53:14.928Z,94250.69
2022-11-21T04:55:44.194Z,94244.84
2022-11-21T04:58:13.022Z,94232.97
2022-11-21T05:00:40.815Z,94222.81
2022-11-21T05:03:08.848Z,94229.41
2022-11-21T05:05:36.598Z,94224.00
2022-11-21T05:08:04.933Z,94208.78
2022-11-21T05:10:52.870Z,94207.03
2022-11-21T05:13:21.325Z,94211.94
2022-11-21T05:15:51.597Z,94203.19
2022-11-21T05:18:20.796Z,94196.28
2022-11-21T05:20:48.687Z,94198.53
2022-11-21T05:23:16.776Z,94206.41
2022-11-21T05:25:44.551Z,94202.38
2022-11-21T05:28:12.612Z,94197.31
2022-11-21T05:30:44.287Z,94196.81
2022-11-21T05:33:12.062Z,94207.59
2022-11-21T05:35:43.353Z,94208.56
2022-11-21T05:38:11.785Z,94212.50
2022-11-21T05:40:39.635Z,94204.13
2022-11-21T05:43:24.777Z,94211.91
2022-11-21T05:45:54.426Z,94198.84
2022-11-21T05:48:22.290Z,94198.19
2022-11-21T05:50:50.644Z,94203.75
2022-11-21T05:53:19.094Z,94205.59
2022-11-21T05:55:47.198Z,94211.34
2022-11-21T05:58:15.444Z,94211.44
2022-11-21T06:00:43.204Z,94200.06
2022-11-21T06:03:27.250Z,94213.06
2022-11-21T06:06:00.374Z,94210.28
2022-11-21T06:08:28.357Z,94210.44
2022-11-21T06:10:56.276Z,94219.44
2022-11-21T06:13:24.121Z,94220.50
2022-11-21T06:15:53.877Z,94232.06
2022-11-21T06:18:23.032Z,94231.59
2022-11-21T06:20:51.097Z,94225.22
2022-11-21T06:23:19.335Z,94210.63
2022-11-21T06:25:47.197Z,94230.56
2022-11-21T06:28:15.084Z,94231.88
2022-11-21T06:30:42.875Z,94231.09
2022-11-21T06:33:10.658Z,94249.09
2022-11-21T06:35:40.611Z,94242.72
2022-11-21T06:38:08.853Z,94225.13
2022-11-21T06:40:38.763Z,94231.53
2022-11-21T06:43:06.579Z,94243.47
2022-11-21T06:45:34.473Z,94238.94
2022-11-21T06:48:02.909Z,94245.66
2022-11-21T06:50:31.153Z,94266.09
2022-11-21T06:53:00.486Z,94276.69
2022-11-21T06:55:29.784Z,94287.38
2022-11-21T06:57:59.818Z,94269.41
2022-11-21T07:00:28.396Z,94271.97
2022-11-21T07:03:01.604Z,94270.63
2022-11-21T07:05:31.206Z,94272.91
2022-11-21T07:08:01.988Z,94294.91
2022-11-21T07:10:31.126Z,94271.03
2022-11-21T07:13:16.468Z,94287.38
2022-11-21T07:15:44.872Z,94296.88
2022-11-21T07:18:13.322Z,94299.47
2022-11-21T07:20:41.741Z,94304.03
2022-11-21T07:23:11.391Z,94299.19
2022-11-21T07:25:39.684Z,94298.31
2022-11-21T07:28:09.735Z,94304.38
2022-11-21T07:30:37.957Z,94293.19
2022-11-21T07:33:07.272Z,94300.03
2022-11-21T07:35:35.270Z,94305.59
2022-11-21T07:38:03.685Z,94314.44
2022-11-21T07:40:34.645Z,94312.72
2022-11-21T07:43:06.683Z,94318.03
2022-11-21T07:45:39.157Z,94310.31
2022-11-21T07:48:08.272Z,94315.38
2022-11-21T07:50:36.188Z,94318.47
2022-11-21T07:53:05.938Z,94334.03
2022-11-21T07:55:40.323Z,94323.34
2022-11-21T07:58:10.307Z,94316.03
2022-11-21T08:00:40.183Z,94317.59
2022-11-21T08:03:08.393Z,94312.63
2022-11-21T08:05:37.218Z,94322.75
2022-11-21T08:08:05.579Z,94313.81
2022-11-21T08:10:34.734Z,94331.03
2022-11-21T08:13:02.495Z,94344.88
2022-11-21T08:15:30.291Z,94331.06
2022-11-21T08:17:58.060Z,94324.41
2022-11-21T08:20:25.963Z,94330.00
2022-11-21T08:22:53.819Z,94337.56
2022-11-21T08:25:21.578Z,94336.38
2022-11-21T08:27:50.731Z,94329.03
2022-11-21T08:30:18.599Z,94350.50
2022-11-21T08:32:46.363Z,94345.00
2022-11-21T08:35:14.140Z,94334.03
2022-11-21T08:37:41.895Z,94351.47
2022-11-21T08:40:11.772Z,94329.38
2022-11-21T08:42:39.549Z,94332.03
2022-11-21T08:45:10.033Z,94335.81
2022-11-21T08:47:37.860Z,94335.09
2022-11-21T08:50:09.172Z,94343.53
2022-11-21T08:52:37.199Z,94342.44
2022-11-21T08:55:05.333Z,94345.22
2022-11-21T08:57:33.142Z,94334.75
2022-11-21T09:00:00.875Z,94336.44
2022-11-21T09:02:55.212Z,94335.78
2022-11-21T09:05:22.945Z,94330.13
2022-11-21T09:08:01.690Z,94325.84
2022-11-21T09:10:30.097Z,94331.84
2022-11-21T09:12:58.934Z,94333.97
2022-11-21T09:15:47.916Z,94327.31
2022-11-21T09:18:17.185Z,94327.91
2022-11-21T09:20:45.600Z,94328.78
2022-11-21T09:23:15.667Z,94321.25
2022-11-21T09:25:43.924Z,94321.31
2022-11-21T09:28:13.446Z,94331.38
2022-11-21T09:30:42.059Z,94337.53
2022-11-21T09:33:13.207Z,94327.56
2022-11-21T09:35:42.393Z,94336.75
2022-11-21T09:38:10.662Z,94326.19
2022-11-21T09:40:44.755Z,94329.69
2022-11-21T09:43:31.203Z,94319.31
2022-11-21T09:46:07.000Z,94334.63
2022-11-21T09:48:39.720Z,94311.31
2022-11-21T09:51:14.907Z,94319.44
2022-11-21T09:53:54.046Z,94316.63
2022-11-21T09:56:24.339Z,94317.50
2022-11-21T09:59:07.374Z,94316.34
2022-11-21T10:01:35.779Z,94317.94
2022-11-21T10:04:04.653Z,94307.97
2022-11-21T10:06:43.539Z,94310.38
2022-11-21T10:09:21.167Z,94314.16
2022-11-21T10:12:17.008Z,94309.88
2022-11-21T10:14:57.082Z,94304.56
2022-11-21T10:17:37.020Z,94300.84
2022-11-21T10:20:22.797Z,94301.16
2022-11-21T10:23:06.702Z,94303.72
2022-11-21T10:25:38.355Z,94282.50
2022-11-21T10:28:13.968Z,94281.94
2022-11-21T10:30:44.997Z,94280.00
2022-11-21T10:33:18.359Z,94264.66
2022-11-21T10:35:50.125Z,94263.88
2022-11-21T10:38:23.190Z,94260.56
2022-11-21T10:40:55.677Z,94259.94
2022-11-21T10:43:53.256Z,94266.25
2022-11-21T10:46:21.402Z,94260.38
2022-11-21T10:48:57.033Z,94261.19
2022-11-21T10:51:38.254Z,94268.28
2022-11-21T10:54:27.560Z,94251.97
2022-11-21T10:56:59.910Z,94272.38
2022-11-21T10:59:31.303Z,94265.13
2022-11-21T11:02:01.251Z,94261.22
2022-11-21T11:04:44.045Z,94270.81
2022-11-21T11:07:25.352Z,94244.03
2022-11-21T11:10:14.794Z,94239.53
2022-11-21T11:13:04.987Z,94236.22
2022-11-21T11:15:39.322Z,94227.78
2022-11-21T11:18:09.671Z,94226.38
2022-11-21T11:20:39.806Z,94211.88
2022-11-21T11:23:18.266Z,94223.66
2022-11-21T11:25:52.932Z,94214.03
2022-11-21T11:28:21.362Z,94206.22
2022-11-21T11:30:50.263Z,94207.56
2022-11-21T11:33:36.654Z,94210.88
2022-11-21T11:36:16.146Z,94208.53
2022-11-21T11:38:49.790Z,94199.34
2022-11-21T11:42:01.136Z,94203.06
2022-11-21T11:44:55.255Z,94193.25
2022-11-21T11:47:31.469Z,94192.25
2022-11-21T11:50:15.593Z,94183.22
2022-11-21T11:52:54.703Z,94193.66
2022-11-21T11:55:27.803Z,94186.59
2022-11-21T11:58:00.861Z,94178.19
2022-11-21T12:00:36.282Z,94175.81
2022-11-21T12:03:14.683Z,94164.22
2022-11-21T12:05:56.682Z,94166.94
2022-11-21T12:08:47.552Z,94162.03
2022-11-21T12:11:42.208Z,94154.63
2022-11-21T12:14:39.494Z,94156.88
2022-11-21T12:17:09.997Z,94143.03
2022-11-21T12:19:39.617Z,94138.75
2022-11-21T12:22:11.536Z,94131.03
2022-11-21T12:24:42.960Z,94124.34
2022-11-21T12:27:23.222Z,94126.34
2022-11-21T12:30:07.167Z,94110.44
2022-11-21T12:32:55.567Z,94105.72
2022-11-21T12:35:40.206Z,94107.19
2022-11-21T12:38:22.677Z,94099.50
2022-11-21T12:41:30.143Z,94102.75
2022-11-21T12:44:10.771Z,94093.59
2022-11-21T12:46:53.548Z,94091.22
2022-11-21T12:49:54.560Z,94086.81
2022-11-21T12:52:48.105Z,94085.50
2022-11-21T12:55:22.182Z,94073.50
2022-11-21T12:58:06.056Z,94072.47
2022-11-21T13:00:43.983Z,94075.84
2022-11-21T13:03:30.007Z,94078.69
2022-11-21T13:05:59.657Z,94073.59
2022-11-21T13:08:30.781Z,94065.25
2022-11-21T13:11:21.370Z,94059.50
2022-11-21T13:13:57.178Z,94055.47
2022-11-21T13:16:37.660Z,94041.25
2022-11-21T13:19:23.422Z,94049.06
2022-11-21T13:21:55.652Z,94047.25
2022-11-21T13:24:59.244Z,94046.81
2022-11-21T13:27:38.096Z,94037.16
2022-11-21T13:30:33.825Z,94041.59
2022-11-21T13:33:01.698Z,94047.59
2022-11-21T13:36:05.976Z,94043.22
2022-11-21T13:39:13.771Z,94034.69
2022-11-21T13:42:30.804Z,94030.84
2022-11-21T13:44:59.491Z,94020.34
2022-11-21T13:48:11.836Z,94023.38
2022-11-21T13:51:12.729Z,94013.09
2022-11-21T13:54:02.471Z,94019.28
2022-11-21T13:56:38.172Z,94010.34
2022-11-21T13:59:22.288Z,94006.47
2022-11-21T14:02:08.646Z,94002.75
2022-11-21T14:04:55.693Z,93986.41
2022-11-21T14:07:30.940Z,93988.72
2022-11-21T14:10:02.162Z,93987.41
2022-11-21T14:12:35.248Z,93981.88
2022-11-21T14:15:21.460Z,93985.94
2022-11-21T14:17:50.930Z,93983.03
2022-11-21T14:20:24.818Z,93980.84
2022-11-21T14:22:59.534Z,93977.81
2022-11-21T14:25:36.500Z,93969.13
2022-11-21T14:28:07.656Z,93969.28
2022-11-21T14:30:38.588Z,93972.56
2022-11-21T14:33:23.176Z,93964.38
2022-11-21T14:35:54.460Z,93959.03
2022-11-21T14:38:23.512Z,93948.16
2022-11-21T14:41:12.379Z,93961.53
2022-11-21T14:43:40.162Z,93941.28
2022-11-21T14:46:16.300Z,93941.16
2022-11-21T14:48:44.282Z,93943.97
2022-11-21T14:51:17.381Z,93935.97
2022-11-21T14:53:47.140Z,93925.50
2022-11-21T14:56:23.697Z,93917.13
2022-11-21T14:58:53.020Z,93914.22
2022-11-21T15:01:22.432Z,93911.53
2022-11-21T15:04:01.197Z,93903.69
2022-11-21T15:06:30.044Z,93898.66
2022-11-21T15:11:52.521Z,93880.66
2022-11-21T15:14:25.633Z,93868.75
2022-11-21T15:16:55.423Z,93872.47
2022-11-21T15:19:25.169Z,93875.38
2022-11-21T15:21:55.414Z,93871.09
2022-11-21T15:24:40.395Z,93862.66
2022-11-21T15:27:34.879Z,93849.19
2022-11-21T15:30:22.158Z,93851.72
2022-11-21T15:33:07.568Z,93846.03
2022-11-21T15:36:12.108Z,93837.47
2022-11-21T15:38:45.293Z,93831.19
2022-11-21T15:41:28.237Z,93826.88
2022-11-21T15:44:12.951Z,93813.97
2022-11-21T15:46:42.926Z,93812.78
2022-11-21T15:49:32.532Z,93801.66
2022-11-21T15:52:06.983Z,93806.53
2022-11-21T15:54:35.474Z,93803.59
2022-11-21T15:57:03.295Z,93802.44
2022-11-21T15:59:32.764Z,93799.09
2022-11-21T16:02:00.663Z,93799.88
2022-11-21T16:04:28.694Z,93802.38
2022-11-21T16:06:56.503Z,93795.75
2022-11-21T16:09:25.163Z,93772.31
2022-11-21T16:11:52.948Z,93775.66
2022-11-21T16:14:20.756Z,93768.56
2022-11-21T16:16:49.900Z,93772.97
2022-11-21T16:19:17.706Z,93775.69
2022-11-21T16:21:45.482Z,93778.28
2022-11-21T16:24:13.500Z,93777.16
2022-11-21T16:26:41.288Z,93757.28
2022-11-21T16:29:12.152Z,93760.72
2022-11-21T16:31:39.925Z,93759.91
2022-11-21T16:34:09.168Z,93757.22
2022-11-21T16:36:38.059Z,93743.91
2022-11-21T16:39:11.115Z,93732.94
2022-11-21T16:41:41.114Z,93739.81
2022-11-21T16:44:13.871Z,93728.56
2022-11-21T16:46:43.603Z,93730.47
2022-11-21T16:49:13.033Z,93719.56
2022-11-21T16:51:40.934Z,93711.78
2022-11-21T16:54:09.680Z,93705.72
2022-11-21T16:56:38.177Z,93697.88
2022-11-21T16:59:06.018Z,93714.63
2022-11-21T17:01:33.918Z,93709.22
2022-11-21T17:04:01.735Z,93703.50
2022-11-21T17:06:32.209Z,93697.81
2022-11-21T17:09:01.688Z,93699.63
2022-11-21T17:11:32.273Z,93689.47
2022-11-21T17:14:02.148Z,93684.66
2022-11-21T17:16:30.471Z,93683.75
2022-11-21T17:19:00.888Z,93678.47
2022-11-21T17:21:31.236Z,93678.75
2022-11-21T17:23:59.181Z,93677.78
2022-11-21T17:26:28.444Z,93664.28
2022-11-21T17:28:57.701Z,93663.13
2022-11-21T17:31:26.265Z,93657.84
2022-11-21T17:33:54.795Z,93643.19
2022-11-21T17:36:24.440Z,93634.97
2022-11-21T17:38:54.671Z,93642.00
2022-11-21T17:41:24.047Z,93635.75
2022-11-21T17:43:56.058Z,93634.56
2022-11-21T17:46:25.363Z,93634.97
2022-11-21T17:48:58.474Z,93624.25
2022-11-21T17:51:28.998Z,93631.25
2022-11-21T17:53:59.397Z,93619.19
2022-11-21T17:56:29.631Z,93621.69
2022-11-21T17:58:57.796Z,93617.81
2022-11-21T18:01:26.414Z,93618.19
2022-11-21T18:03:56.639Z,93610.56
2022-11-21T18:06:25.651Z,93620.91
2022-11-21T18:08:53.513Z,93613.13
2022-11-21T18:11:23.133Z,93607.69
2022-11-21T18:13:51.640Z,93603.56
2022-11-21T18:16:22.033Z,93596.75
2022-11-21T18:18:50.588Z,93595.56
2022-11-21T18:21:20.874Z,93589.88
2022-11-21T18:23:48.929Z,93582.81
2022-11-21T18:26:20.490Z,93585.59
2022-11-21T18:29:01.779Z,93581.66
2022-11-21T18:31:38.346Z,93583.97
2022-11-21T18:34:07.565Z,93573.22
2022-11-21T18:36:36.043Z,93572.41
2022-11-21T18:39:10.498Z,93564.44
2022-11-21T18:41:41.780Z,93563.06
2022-11-21T18:44:19.980Z,93548.66
2022-11-21T18:46:49.379Z,93554.91
2022-11-21T18:49:18.477Z,93548.66
2022-11-21T18:51:46.343Z,93535.75
2022-11-21T18:54:14.164Z,93526.81
2022-11-21T18:56:41.920Z,93518.44
2022-11-21T18:59:11.334Z,93516.50
2022-11-21T19:01:40.219Z,93512.00
2022-11-21T19:04:08.692Z,93502.25
2022-11-21T19:06:36.988Z,93500.47
2022-11-21T19:09:06.491Z,93498.31
2022-11-21T19:11:35.846Z,93501.03
2022-11-21T19:14:03.736Z,93490.16
2022-11-21T19:16:34.263Z,93495.78
2022-11-21T19:19:33.052Z,93490.13
2022-11-21T19:21:52.605Z,93493.44
2022-11-21T19:24:20.386Z,93479.41
2022-11-21T19:26:50.341Z,93467.91
2022-11-21T19:29:18.797Z,93458.34
2022-11-21T19:31:48.021Z,93458.16
2022-11-21T19:34:16.476Z,93450.00
2022-11-21T19:36:44.997Z,93442.78
2022-11-21T19:39:13.810Z,93437.34
2022-11-21T19:41:41.631Z,93418.22
2022-11-21T19:44:09.734Z,93406.06
2022-11-21T19:46:39.740Z,93394.25
2022-11-21T19:49:11.203Z,93400.69
2022-11-21T19:51:41.897Z,93404.22
2022-11-21T19:54:13.154Z,93410.44
2022-11-21T19:56:41.235Z,93406.75
2022-11-21T19:59:12.001Z,93402.44
2022-11-21T20:01:40.917Z,93410.25
2022-11-21T20:04:12.331Z,93407.91
2022-11-21T20:06:42.466Z,93401.09
2022-11-21T20:09:12.778Z,93397.78
2022-11-21T20:11:42.448Z,93403.22
2022-11-21T20:14:11.631Z,93400.91
2022-11-21T20:16:43.993Z,93399.16
2022-11-21T20:19:15.608Z,93384.13
2022-11-21T20:21:44.392Z,93382.34
2022-11-21T20:24:13.289Z,93375.53
2022-11-21T20:26:41.559Z,93387.84
2022-11-21T20:29:10.984Z,93389.59
2022-11-21T20:31:39.115Z,93389.41
2022-11-21T20:34:09.853Z,93376.53
2022-11-21T20:36:39.539Z,93378.69
2022-11-21T20:39:09.607Z,93373.63
2022-11-21T20:41:37.990Z,93374.59
2022-11-21T20:46:55.454Z,93384.31
2022-11-21T20:49:23.507Z,93380.81
2022-11-21T20:54:40.425Z,93373.00
2022-11-21T20:57:14.313Z,93366.44
2022-11-21T20:59:42.945Z,93361.34
2022-11-21T21:02:13.795Z,93358.22
2022-11-21T21:04:41.876Z,93363.50
2022-11-21T21:07:11.239Z,93347.91
2022-11-21T21:09:39.117Z,93348.09
2022-11-21T21:12:07.258Z,93346.56
2022-11-21T21:14:35.107Z,93342.84
2022-11-21T21:17:07.453Z,93339.72
2022-11-21T21:19:36.494Z,93337.78
2022-11-21T21:22:04.918Z,93348.50
2022-11-21T21:24:34.112Z,93339.13
2022-11-21T21:27:01.880Z,93329.78
2022-11-21T21:29:30.016Z,93333.88
2022-11-21T21:31:58.063Z,93339.34
2022-11-21T21:34:25.796Z,93330.97
2022-11-21T21:36:53.549Z,93323.13
2022-11-21T21:39:21.372Z,93324.69
2022-11-21T21:41:50.497Z,93337.31
2022-11-21T21:44:18.874Z,93338.75
2022-11-21T21:46:46.721Z,93336.03
2022-11-21T21:49:14.659Z,93336.97
2022-11-21T21:51:42.810Z,93337.31
2022-11-21T21:54:18.553Z,93340.41
2022-11-21T21:56:47.009Z,93338.50
2022-11-21T21:59:17.941Z,93328.00
2022-11-21T22:01:46.027Z,93320.75
2022-11-21T22:04:14.077Z,93334.19
2022-11-21T22:06:41.891Z,93326.63
2022-11-21T22:09:09.806Z,93324.31
2022-11-21T22:11:39.516Z,93324.91
2022-11-21T22:14:11.242Z,93333.28
2022-11-21T22:16:41.085Z,93330.19
2022-11-21T22:19:09.716Z,93320.25
2022-11-21T22:21:39.279Z,93326.09
2022-11-21T22:24:28.472Z,93328.44
2022-11-21T22:26:56.423Z,93322.34
2022-11-21T22:29:24.396Z,93327.22
2022-11-21T22:31:53.670Z,93315.16
2022-11-21T22:34:22.100Z,93321.03
2022-11-21T22:36:49.958Z,93309.50
2022-11-21T22:39:17.993Z,93320.25
2022-11-21T22:41:45.916Z,93338.75
2022-11-21T22:44:13.719Z,93341.88
2022-11-21T22:46:41.601Z,93364.84
2022-11-21T22:49:10.784Z,93375.16
2022-11-21T22:51:38.645Z,93380.97
2022-11-21T22:54:06.496Z,93414.84
2022-11-21T22:56:34.334Z,93386.47
2022-11-21T22:59:02.241Z,93385.84
2022-11-21T23:01:30.043Z,93351.94
2022-11-21T23:03:57.858Z,93348.00
2022-11-21T23:06:28.359Z,93339.78
2022-11-21T23:08:57.649Z,93343.50
2022-11-21T23:11:27.712Z,93341.00
2022-11-21T23:13:56.498Z,93356.19
2022-11-21T23:16:24.794Z,93359.16
2022-11-21T23:18:53.940Z,93349.50
2022-11-21T23:21:22.109Z,93348.47
2022-11-21T23:23:51.248Z,93336.25
2022-11-21T23:26:19.124Z,93344.75
2022-11-21T23:28:47.063Z,93333.94
2022-11-21T23:31:14.897Z,93335.69
2022-11-21T23:33:42.793Z,93344.81
2022-11-21T23:36:10.528Z,93344.34
2022-11-21T23:38:39.398Z,93341.38
2022-11-21T23:41:08.524Z,93344.38
2022-11-21T23:43:36.303Z,93340.16
2022-11-21T23:46:04.130Z,93330.47
2022-11-21T23:48:31.904Z,93339.72
2022-11-21T23:50:59.737Z,93350.63
2022-11-21T23:53:27.743Z,93359.53
2022-11-21T23:55:55.491Z,93357.28
2022-11-21T23:58:24.614Z,93363.06
